sensor_id;sensor_type;location;lat;lon;timestamp;temperature;humidity
67279;DHT22;54193;53.746;10.058;2022-12-18T00:02:31;-5.27;93.49
67279;DHT22;54193;53.746;10.058;2022-12-18T00:05:16;-5.32;93.66
67279;DHT22;54193;53.746;10.058;2022-12-18T00:08:02;-5.32;93.74
67279;DHT22;54193;53.746;10.058;2022-12-18T00:10:48;-5.39;93.58
67279;DHT22;54193;53.746;10.058;2022-12-18T00:13:34;-5.37;93.66
67279;DHT22;54193;53.746;10.058;2022-12-18T00:16:22;-5.44;93.72
67279;DHT22;54193;53.746;10.058;2022-12-18T00:19:08;-5.48;93.50
67279;DHT22;54193;53.746;10.058;2022-12-18T00:21:55;-5.41;93.64
67279;DHT22;54193;53.746;10.058;2022-12-18T00:24:40;-5.48;93.71
67279;DHT22;54193;53.746;10.058;2022-12-18T00:27:26;-5.56;93.71
67279;DHT22;54193;53.746;10.058;2022-12-18T00:30:12;-5.52;93.79
67279;DHT22;54193;53.746;10.058;2022-12-18T00:32:57;-5.56;93.76
67279;DHT22;54193;53.746;10.058;2022-12-18T00:35:43;-5.54;93.74
67279;DHT22;54193;53.746;10.058;2022-12-18T00:38:29;-5.55;93.80
67279;DHT22;54193;53.746;10.058;2022-12-18T00:41:16;-5.55;93.81
67279;DHT22;54193;53.746;10.058;2022-12-18T00:44:22;-5.54;93.76
67279;DHT22;54193;53.746;10.058;2022-12-18T00:47:07;-5.59;93.69
67279;DHT22;54193;53.746;10.058;2022-12-18T00:49:53;-5.62;93.39
67279;DHT22;54193;53.746;10.058;2022-12-18T00:52:42;-5.69;93.76
67279;DHT22;54193;53.746;10.058;2022-12-18T00:55:28;-5.69;93.87
67279;DHT22;54193;53.746;10.058;2022-12-18T00:58:15;-5.72;93.86
67279;DHT22;54193;53.746;10.058;2022-12-18T01:01:00;-5.79;93.75
67279;DHT22;54193;53.746;10.058;2022-12-18T01:03:46;-5.81;93.78
67279;DHT22;54193;53.746;10.058;2022-12-18T01:06:32;-5.83;93.88
67279;DHT22;54193;53.746;10.058;2022-12-18T01:09:17;-5.86;93.86
67279;DHT22;54193;53.746;10.058;2022-12-18T01:12:03;-5.92;93.85
67279;DHT22;54193;53.746;10.058;2022-12-18T01:14:49;-5.99;93.79
67279;DHT22;54193;53.746;10.058;2022-12-18T01:17:35;-5.90;94.06
67279;DHT22;54193;53.746;10.058;2022-12-18T01:20:20;-5.89;93.91
67279;DHT22;54193;53.746;10.058;2022-12-18T01:23:06;-5.96;93.88
67279;DHT22;54193;53.746;10.058;2022-12-18T01:25:52;-5.96;93.92
67279;DHT22;54193;53.746;10.058;2022-12-18T01:28:38;-5.92;93.95
67279;DHT22;54193;53.746;10.058;2022-12-18T01:31:27;-5.94;93.90
67279;DHT22;54193;53.746;10.058;2022-12-18T01:34:13;-6.00;93.99
67279;DHT22;54193;53.746;10.058;2022-12-18T01:36:58;-6.03;93.98
67279;DHT22;54193;53.746;10.058;2022-12-18T01:39:44;-6.10;93.96
67279;DHT22;54193;53.746;10.058;2022-12-18T01:42:29;-6.14;93.87
67279;DHT22;54193;53.746;10.058;2022-12-18T01:48:04;-6.10;94.07
67279;DHT22;54193;53.746;10.058;2022-12-18T01:50:50;-6.14;94.06
67279;DHT22;54193;53.746;10.058;2022-12-18T01:53:36;-6.18;93.85
67279;DHT22;54193;53.746;10.058;2022-12-18T01:56:22;-6.20;94.02
67279;DHT22;54193;53.746;10.058;2022-12-18T01:59:09;-6.11;94.12
67279;DHT22;54193;53.746;10.058;2022-12-18T02:01:56;-6.13;94.12
67279;DHT22;54193;53.746;10.058;2022-12-18T02:04:42;-6.07;93.93
67279;DHT22;54193;53.746;10.058;2022-12-18T02:07:51;-6.13;93.85
67279;DHT22;54193;53.746;10.058;2022-12-18T02:11:00;-6.17;93.89
67279;DHT22;54193;53.746;10.058;2022-12-18T02:14:07;-6.10;93.88
67279;DHT22;54193;53.746;10.058;2022-12-18T02:17:00;-6.09;93.81
67279;DHT22;54193;53.746;10.058;2022-12-18T02:26:07;-6.23;93.69
67279;DHT22;54193;53.746;10.058;2022-12-18T02:29:31;-6.28;93.72
67279;DHT22;54193;53.746;10.058;2022-12-18T02:32:25;-6.24;93.75
67279;DHT22;54193;53.746;10.058;2022-12-18T02:35:15;-6.32;93.68
67279;DHT22;54193;53.746;10.058;2022-12-18T02:38:03;-6.31;93.79
67279;DHT22;54193;53.746;10.058;2022-12-18T02:40:49;-6.37;93.75
67279;DHT22;54193;53.746;10.058;2022-12-18T02:43:35;-6.41;93.70
67279;DHT22;54193;53.746;10.058;2022-12-18T02:52:07;-6.45;93.77
67279;DHT22;54193;53.746;10.058;2022-12-18T03:04:16;-6.45;94.14
67279;DHT22;54193;53.746;10.058;2022-12-18T03:07:05;-6.45;94.04
67279;DHT22;54193;53.746;10.058;2022-12-18T03:09:53;-6.51;93.91
67279;DHT22;54193;53.746;10.058;2022-12-18T03:12:44;-6.55;93.81
67279;DHT22;54193;53.746;10.058;2022-12-18T03:15:37;-6.59;93.85
67279;DHT22;54193;53.746;10.058;2022-12-18T03:18:30;-6.65;93.89
67279;DHT22;54193;53.746;10.058;2022-12-18T03:21:22;-6.68;93.79
67279;DHT22;54193;53.746;10.058;2022-12-18T03:24:09;-6.69;93.85
67279;DHT22;54193;53.746;10.058;2022-12-18T03:27:00;-6.72;93.83
67279;DHT22;54193;53.746;10.058;2022-12-18T03:30:01;-6.75;93.87
67279;DHT22;54193;53.746;10.058;2022-12-18T03:33:05;-6.73;93.91
67279;DHT22;54193;53.746;10.058;2022-12-18T03:35:51;-6.79;93.78
67279;DHT22;54193;53.746;10.058;2022-12-18T03:38:37;-6.75;93.90
67279;DHT22;54193;53.746;10.058;2022-12-18T03:42:15;-6.73;93.98
67279;DHT22;54193;53.746;10.058;2022-12-18T03:45:02;-6.82;93.80
67279;DHT22;54193;53.746;10.058;2022-12-18T03:48:00;-6.83;93.92
67279;DHT22;54193;53.746;10.058;2022-12-18T03:50:52;-6.83;93.97
67279;DHT22;54193;53.746;10.058;2022-12-18T03:53:53;-6.83;93.91
67279;DHT22;54193;53.746;10.058;2022-12-18T03:56:49;-6.85;93.95
67279;DHT22;54193;53.746;10.058;2022-12-18T03:59:37;-6.80;94.00
67279;DHT22;54193;53.746;10.058;2022-12-18T04:02:24;-6.76;93.99
67279;DHT22;54193;53.746;10.058;2022-12-18T04:05:11;-6.72;93.88
67279;DHT22;54193;53.746;10.058;2022-12-18T04:07:57;-6.76;93.80
67279;DHT22;54193;53.746;10.058;2022-12-18T04:10:43;-6.78;93.85
67279;DHT22;54193;53.746;10.058;2022-12-18T04:13:32;-6.79;93.85
67279;DHT22;54193;53.746;10.058;2022-12-18T04:16:19;-6.76;93.83
67279;DHT22;54193;53.746;10.058;2022-12-18T04:19:05;-6.72;93.87
67279;DHT22;54193;53.746;10.058;2022-12-18T04:21:51;-6.67;93.76
67279;DHT22;54193;53.746;10.058;2022-12-18T04:24:36;-6.59;93.70
67279;DHT22;54193;53.746;10.058;2022-12-18T04:27:22;-6.62;93.47
67279;DHT22;54193;53.746;10.058;2022-12-18T04:30:08;-6.64;93.67
67279;DHT22;54193;53.746;10.058;2022-12-18T04:32:53;-6.65;93.51
67279;DHT22;54193;53.746;10.058;2022-12-18T04:35:41;-6.65;93.45
67279;DHT22;54193;53.746;10.058;2022-12-18T04:38:27;-6.67;93.49
67279;DHT22;54193;53.746;10.058;2022-12-18T04:41:12;-6.72;93.45
67279;DHT22;54193;53.746;10.058;2022-12-18T04:43:58;-6.68;93.54
67279;DHT22;54193;53.746;10.058;2022-12-18T04:46:44;-6.67;93.53
67279;DHT22;54193;53.746;10.058;2022-12-18T04:49:29;-6.72;93.50
67279;DHT22;54193;53.746;10.058;2022-12-18T04:52:15;-6.76;93.50
67279;DHT22;54193;53.746;10.058;2022-12-18T04:55:00;-6.71;93.54
67279;DHT22;54193;53.746;10.058;2022-12-18T04:57:46;-6.68;93.51
67279;DHT22;54193;53.746;10.058;2022-12-18T05:00:32;-6.68;93.48
67279;DHT22;54193;53.746;10.058;2022-12-18T05:03:17;-6.69;93.42
67279;DHT22;54193;53.746;10.058;2022-12-18T05:06:04;-6.72;93.59
67279;DHT22;54193;53.746;10.058;2022-12-18T05:08:50;-6.71;93.58
67279;DHT22;54193;53.746;10.058;2022-12-18T05:11:36;-6.65;93.65
67279;DHT22;54193;53.746;10.058;2022-12-18T05:14:21;-6.68;93.49
67279;DHT22;54193;53.746;10.058;2022-12-18T05:17:07;-6.67;93.57
67279;DHT22;54193;53.746;10.058;2022-12-18T05:19:53;-6.67;93.52
67279;DHT22;54193;53.746;10.058;2022-12-18T05:22:38;-6.67;93.37
67279;DHT22;54193;53.746;10.058;2022-12-18T05:25:24;-6.73;93.40
67279;DHT22;54193;53.746;10.058;2022-12-18T05:28:09;-6.75;93.56
67279;DHT22;54193;53.746;10.058;2022-12-18T05:30:57;-6.78;93.51
67279;DHT22;54193;53.746;10.058;2022-12-18T05:33:43;-6.78;93.40
67279;DHT22;54193;53.746;10.058;2022-12-18T05:36:29;-6.82;93.58
67279;DHT22;54193;53.746;10.058;2022-12-18T05:39:14;-6.79;93.53
67279;DHT22;54193;53.746;10.058;2022-12-18T05:42:00;-6.83;93.61
67279;DHT22;54193;53.746;10.058;2022-12-18T05:44:46;-6.89;93.58
67279;DHT22;54193;53.746;10.058;2022-12-18T05:47:31;-6.90;93.66
67279;DHT22;54193;53.746;10.058;2022-12-18T05:50:17;-6.92;93.68
67279;DHT22;54193;53.746;10.058;2022-12-18T05:53:04;-6.90;93.76
67279;DHT22;54193;53.746;10.058;2022-12-18T05:55:50;-6.96;93.66
67279;DHT22;54193;53.746;10.058;2022-12-18T05:58:36;-7.01;93.72
67279;DHT22;54193;53.746;10.058;2022-12-18T06:01:24;-6.97;93.85
67279;DHT22;54193;53.746;10.058;2022-12-18T06:04:10;-7.00;93.76
67279;DHT22;54193;53.746;10.058;2022-12-18T06:06:56;-7.04;93.82
67279;DHT22;54193;53.746;10.058;2022-12-18T06:09:41;-6.95;93.93
67279;DHT22;54193;53.746;10.058;2022-12-18T06:12:27;-6.97;93.84
67279;DHT22;54193;53.746;10.058;2022-12-18T06:15:12;-6.93;93.80
67279;DHT22;54193;53.746;10.058;2022-12-18T06:18:00;-7.01;93.72
67279;DHT22;54193;53.746;10.058;2022-12-18T06:20:54;-7.07;93.72
67279;DHT22;54193;53.746;10.058;2022-12-18T06:23:40;-7.01;93.84
67279;DHT22;54193;53.746;10.058;2022-12-18T06:26:25;-7.03;93.86
67279;DHT22;54193;53.746;10.058;2022-12-18T06:29:11;-7.03;93.85
67279;DHT22;54193;53.746;10.058;2022-12-18T06:31:57;-6.99;93.78
67279;DHT22;54193;53.746;10.058;2022-12-18T06:34:42;-7.01;93.61
67279;DHT22;54193;53.746;10.058;2022-12-18T06:37:28;-6.96;93.71
67279;DHT22;54193;53.746;10.058;2022-12-18T06:40:15;-6.96;93.64
67279;DHT22;54193;53.746;10.058;2022-12-18T06:43:01;-6.97;93.71
67279;DHT22;54193;53.746;10.058;2022-12-18T06:45:47;-6.96;93.64
67279;DHT22;54193;53.746;10.058;2022-12-18T06:48:38;-6.93;93.68
67279;DHT22;54193;53.746;10.058;2022-12-18T06:51:24;-6.87;93.51
67279;DHT22;54193;53.746;10.058;2022-12-18T06:54:10;-6.86;93.48
67279;DHT22;54193;53.746;10.058;2022-12-18T06:56:55;-6.85;93.49
67279;DHT22;54193;53.746;10.058;2022-12-18T06:59:41;-6.85;93.46
67279;DHT22;54193;53.746;10.058;2022-12-18T07:02:27;-6.83;93.44
67279;DHT22;54193;53.746;10.058;2022-12-18T07:05:12;-6.83;93.42
67279;DHT22;54193;53.746;10.058;2022-12-18T07:07:58;-6.83;93.31
67279;DHT22;54193;53.746;10.058;2022-12-18T07:10:44;-6.89;93.33
67279;DHT22;54193;53.746;10.058;2022-12-18T07:13:30;-6.89;93.37
67279;DHT22;54193;53.746;10.058;2022-12-18T07:16:18;-6.93;93.38
67279;DHT22;54193;53.746;10.058;2022-12-18T07:19:03;-6.93;93.47
67279;DHT22;54193;53.746;10.058;2022-12-18T07:21:50;-6.92;93.48
67279;DHT22;54193;53.746;10.058;2022-12-18T07:24:36;-6.90;93.41
67279;DHT22;54193;53.746;10.058;2022-12-18T07:27:22;-6.99;93.42
67279;DHT22;54193;53.746;10.058;2022-12-18T07:30:09;-6.95;93.41
67279;DHT22;54193;53.746;10.058;2022-12-18T07:32:55;-7.00;93.39
67279;DHT22;54193;53.746;10.058;2022-12-18T07:35:40;-6.99;93.49
67279;DHT22;54193;53.746;10.058;2022-12-18T07:38:26;-6.97;93.53
67279;DHT22;54193;53.746;10.058;2022-12-18T07:41:13;-6.93;93.47
67279;DHT22;54193;53.746;10.058;2022-12-18T07:43:59;-6.93;93.42
67279;DHT22;54193;53.746;10.058;2022-12-18T07:46:44;-6.90;93.37
67279;DHT22;54193;53.746;10.058;2022-12-18T07:49:30;-6.87;93.39
67279;DHT22;54193;53.746;10.058;2022-12-18T07:52:15;-6.86;93.42
67279;DHT22;54193;53.746;10.058;2022-12-18T07:55:01;-6.86;93.22
67279;DHT22;54193;53.746;10.058;2022-12-18T07:57:50;-6.89;93.13
67279;DHT22;54193;53.746;10.058;2022-12-18T08:00:35;-6.87;93.18
67279;DHT22;54193;53.746;10.058;2022-12-18T08:03:21;-6.85;93.12
67279;DHT22;54193;53.746;10.058;2022-12-18T08:06:09;-6.79;93.09
67279;DHT22;54193;53.746;10.058;2022-12-18T08:08:55;-6.72;93.08
67279;DHT22;54193;53.746;10.058;2022-12-18T08:11:41;-6.68;93.09
67279;DHT22;54193;53.746;10.058;2022-12-18T08:14:27;-6.62;92.93
67279;DHT22;54193;53.746;10.058;2022-12-18T08:17:13;-6.52;92.75
67279;DHT22;54193;53.746;10.058;2022-12-18T08:19:58;-6.48;92.66
67279;DHT22;54193;53.746;10.058;2022-12-18T08:22:44;-6.44;92.47
67279;DHT22;54193;53.746;10.058;2022-12-18T08:25:30;-6.40;92.41
67279;DHT22;54193;53.746;10.058;2022-12-18T08:28:16;-6.30;92.18
67279;DHT22;54193;53.746;10.058;2022-12-18T08:31:02;-6.27;92.19
67279;DHT22;54193;53.746;10.058;2022-12-18T08:33:49;-6.24;92.14
67279;DHT22;54193;53.746;10.058;2022-12-18T08:36:35;-6.14;91.86
67279;DHT22;54193;53.746;10.058;2022-12-18T08:39:21;-6.04;91.52
67279;DHT22;54193;53.746;10.058;2022-12-18T08:42:06;-5.97;91.29
67279;DHT22;54193;53.746;10.058;2022-12-18T08:45:11;-5.89;91.05
67279;DHT22;54193;53.746;10.058;2022-12-18T08:47:56;-5.85;91.24
67279;DHT22;54193;53.746;10.058;2022-12-18T08:50:42;-5.66;91.04
67279;DHT22;54193;53.746;10.058;2022-12-18T08:53:27;-5.56;90.45
67279;DHT22;54193;53.746;10.058;2022-12-18T08:56:14;-5.37;90.33
67279;DHT22;54193;53.746;10.058;2022-12-18T08:59:00;-5.21;89.73
67279;DHT22;54193;53.746;10.058;2022-12-18T09:01:47;-4.82;89.28
67279;DHT22;54193;53.746;10.058;2022-12-18T09:04:33;-4.31;87.83
67279;DHT22;54193;53.746;10.058;2022-12-18T09:07:18;-3.96;85.56
67279;DHT22;54193;53.746;10.058;2022-12-18T09:10:05;-3.52;84.08
67279;DHT22;54193;53.746;10.058;2022-12-18T09:12:50;-2.79;81.25
67279;DHT22;54193;53.746;10.058;2022-12-18T09:15:46;-2.07;79.34
67279;DHT22;54193;53.746;10.058;2022-12-18T09:18:32;-1.95;77.61
67279;DHT22;54193;53.746;10.058;2022-12-18T09:21:20;-2.10;78.01
67279;DHT22;54193;53.746;10.058;2022-12-18T09:24:06;-1.61;76.78
67279;DHT22;54193;53.746;10.058;2022-12-18T09:26:55;-1.43;76.21
67279;DHT22;54193;53.746;10.058;2022-12-18T09:29:41;-0.40;73.26
67279;DHT22;54193;53.746;10.058;2022-12-18T09:32:27;-0.35;73.16
67279;DHT22;54193;53.746;10.058;2022-12-18T09:35:13;0.41;69.97
67279;DHT22;54193;53.746;10.058;2022-12-18T09:37:58;0.72;68.29
67279;DHT22;54193;53.746;10.058;2022-12-18T09:40:48;-0.13;69.17
67279;DHT22;54193;53.746;10.058;2022-12-18T09:43:43;-1.62;74.63
67279;DHT22;54193;53.746;10.058;2022-12-18T09:46:35;-2.41;77.44
67279;DHT22;54193;53.746;10.058;2022-12-18T09:49:25;-2.72;79.32
67279;DHT22;54193;53.746;10.058;2022-12-18T09:52:35;-3.16;80.88
67279;DHT22;54193;53.746;10.058;2022-12-18T09:55:30;-3.36;82.20
67279;DHT22;54193;53.746;10.058;2022-12-18T09:58:38;-3.50;82.60
67279;DHT22;54193;53.746;10.058;2022-12-18T10:01:26;-3.62;83.45
67279;DHT22;54193;53.746;10.058;2022-12-18T10:04:12;-3.71;83.22
67279;DHT22;54193;53.746;10.058;2022-12-18T10:07:31;-3.75;84.25
67279;DHT22;54193;53.746;10.058;2022-12-18T10:13:45;-3.57;83.93
67279;DHT22;54193;53.746;10.058;2022-12-18T10:23:14;-3.54;83.74
67279;DHT22;54193;53.746;10.058;2022-12-18T10:26:09;-3.54;83.62
67279;DHT22;54193;53.746;10.058;2022-12-18T10:28:57;-3.55;84.07
67279;DHT22;54193;53.746;10.058;2022-12-18T10:31:43;-3.54;84.30
67279;DHT22;54193;53.746;10.058;2022-12-18T10:34:28;-3.48;84.04
67279;DHT22;54193;53.746;10.058;2022-12-18T10:37:21;-3.50;83.52
67279;DHT22;54193;53.746;10.058;2022-12-18T10:40:11;-3.43;83.41
67279;DHT22;54193;53.746;10.058;2022-12-18T10:43:12;-3.27;83.21
67279;DHT22;54193;53.746;10.058;2022-12-18T10:48:54;-3.13;82.71
67279;DHT22;54193;53.746;10.058;2022-12-18T10:51:40;-3.14;82.77
67279;DHT22;54193;53.746;10.058;2022-12-18T10:54:27;-3.09;82.46
67279;DHT22;54193;53.746;10.058;2022-12-18T10:57:38;-2.97;82.12
67279;DHT22;54193;53.746;10.058;2022-12-18T11:00:27;-2.88;81.51
67279;DHT22;54193;53.746;10.058;2022-12-18T11:03:37;-2.78;81.37
67279;DHT22;54193;53.746;10.058;2022-12-18T11:06:24;-2.64;81.06
67279;DHT22;54193;53.746;10.058;2022-12-18T11:09:24;-2.58;81.39
67279;DHT22;54193;53.746;10.058;2022-12-18T11:14:55;-2.52;79.95
67279;DHT22;54193;53.746;10.058;2022-12-18T11:17:41;-2.51;79.64
67279;DHT22;54193;53.746;10.058;2022-12-18T11:23:18;-2.44;80.66
67279;DHT22;54193;53.746;10.058;2022-12-18T11:26:05;-2.45;80.47
67279;DHT22;54193;53.746;10.058;2022-12-18T11:28:52;-2.37;80.25
67279;DHT22;54193;53.746;10.058;2022-12-18T11:32:20;-2.29;79.91
67279;DHT22;54193;53.746;10.058;2022-12-18T11:35:17;-2.29;80.79
67279;DHT22;54193;53.746;10.058;2022-12-18T11:38:34;-2.14;79.43
67279;DHT22;54193;53.746;10.058;2022-12-18T11:41:24;-2.06;80.01
67279;DHT22;54193;53.746;10.058;2022-12-18T11:44:58;-1.97;79.19
67279;DHT22;54193;53.746;10.058;2022-12-18T11:47:54;-1.93;79.07
67279;DHT22;54193;53.746;10.058;2022-12-18T11:50:59;-1.87;78.94
67279;DHT22;54193;53.746;10.058;2022-12-18T11:53:45;-1.85;79.40
67279;DHT22;54193;53.746;10.058;2022-12-18T11:56:43;-1.81;78.45
67279;DHT22;54193;53.746;10.058;2022-12-18T12:30:08;-2.33;79.64
67279;DHT22;54193;53.746;10.058;2022-12-18T12:39:37;-2.29;79.74
67279;DHT22;54193;53.746;10.058;2022-12-18T12:42:32;-2.24;79.85
67279;DHT22;54193;53.746;10.058;2022-12-18T12:45:56;-2.31;79.49
67279;DHT22;54193;53.746;10.058;2022-12-18T12:51:38;-2.29;78.81
67279;DHT22;54193;53.746;10.058;2022-12-18T12:54:32;-2.26;78.83
67279;DHT22;54193;53.746;10.058;2022-12-18T12:57:24;-2.20;78.40
67279;DHT22;54193;53.746;10.058;2022-12-18T13:00:16;-2.19;78.22
67279;DHT22;54193;53.746;10.058;2022-12-18T13:03:35;-2.16;78.67
67279;DHT22;54193;53.746;10.058;2022-12-18T13:06:42;-2.10;77.88
67279;DHT22;54193;53.746;10.058;2022-12-18T13:09:33;-2.11;77.87
67279;DHT22;54193;53.746;10.058;2022-12-18T13:12:20;-2.13;77.49
67279;DHT22;54193;53.746;10.058;2022-12-18T13:15:48;-2.11;78.15
67279;DHT22;54193;53.746;10.058;2022-12-18T13:18:34;-2.07;77.56
67279;DHT22;54193;53.746;10.058;2022-12-18T13:21:29;-2.03;77.65
67279;DHT22;54193;53.746;10.058;2022-12-18T13:24:36;-2.06;77.14
67279;DHT22;54193;53.746;10.058;2022-12-18T13:36:17;-2.07;77.82
67279;DHT22;54193;53.746;10.058;2022-12-18T13:44:50;-2.30;77.84
67279;DHT22;54193;53.746;10.058;2022-12-18T13:47:37;-2.41;78.00
67279;DHT22;54193;53.746;10.058;2022-12-18T13:50:24;-2.50;78.32
67279;DHT22;54193;53.746;10.058;2022-12-18T13:53:20;-2.58;79.00
67279;DHT22;54193;53.746;10.058;2022-12-18T13:56:06;-2.66;79.22
67279;DHT22;54193;53.746;10.058;2022-12-18T14:02:05;-2.79;80.41
67279;DHT22;54193;53.746;10.058;2022-12-18T14:04:53;-2.93;81.07
67279;DHT22;54193;53.746;10.058;2022-12-18T14:07:39;-3.01;81.32
67279;DHT22;54193;53.746;10.058;2022-12-18T14:10:25;-3.07;81.59
67279;DHT22;54193;53.746;10.058;2022-12-18T14:13:15;-3.10;81.74
67279;DHT22;54193;53.746;10.058;2022-12-18T14:16:05;-3.14;82.13
67279;DHT22;54193;53.746;10.058;2022-12-18T14:18:56;-3.19;82.41
67279;DHT22;54193;53.746;10.058;2022-12-18T14:21:50;-3.20;82.45
67279;DHT22;54193;53.746;10.058;2022-12-18T14:24:36;-3.27;82.93
67279;DHT22;54193;53.746;10.058;2022-12-18T14:27:24;-3.31;83.36
67279;DHT22;54193;53.746;10.058;2022-12-18T14:33:14;-3.40;83.73
67279;DHT22;54193;53.746;10.058;2022-12-18T14:36:03;-3.43;83.79
67279;DHT22;54193;53.746;10.058;2022-12-18T14:38:51;-3.48;83.94
67279;DHT22;54193;53.746;10.058;2022-12-18T14:41:39;-3.51;84.15
67279;DHT22;54193;53.746;10.058;2022-12-18T14:44:24;-3.52;84.56
67279;DHT22;54193;53.746;10.058;2022-12-18T14:47:14;-3.58;84.70
67279;DHT22;54193;53.746;10.058;2022-12-18T14:50:00;-3.64;85.21
67279;DHT22;54193;53.746;10.058;2022-12-18T14:52:46;-3.66;84.89
67279;DHT22;54193;53.746;10.058;2022-12-18T14:55:32;-3.66;85.00
67279;DHT22;54193;53.746;10.058;2022-12-18T14:58:18;-3.69;84.97
67279;DHT22;54193;53.746;10.058;2022-12-18T15:01:03;-3.75;85.47
67279;DHT22;54193;53.746;10.058;2022-12-18T15:03:51;-3.72;85.09
67279;DHT22;54193;53.746;10.058;2022-12-18T15:06:38;-3.75;85.14
67279;DHT22;54193;53.746;10.058;2022-12-18T15:09:25;-3.81;85.60
67279;DHT22;54193;53.746;10.058;2022-12-18T15:12:34;-3.82;85.98
67279;DHT22;54193;53.746;10.058;2022-12-18T15:18:30;-3.82;85.82
67279;DHT22;54193;53.746;10.058;2022-12-18T15:21:19;-3.86;85.73
67279;DHT22;54193;53.746;10.058;2022-12-18T15:24:17;-3.89;86.01
67279;DHT22;54193;53.746;10.058;2022-12-18T15:27:03;-3.92;86.16
67279;DHT22;54193;53.746;10.058;2022-12-18T15:30:16;-3.99;86.38
67279;DHT22;54193;53.746;10.058;2022-12-18T15:33:38;-4.04;86.95
67279;DHT22;54193;53.746;10.058;2022-12-18T15:36:25;-3.99;86.49
67279;DHT22;54193;53.746;10.058;2022-12-18T15:39:12;-4.03;86.53
67279;DHT22;54193;53.746;10.058;2022-12-18T15:42:00;-4.06;86.97
67279;DHT22;54193;53.746;10.058;2022-12-18T15:45:05;-3.97;86.59
67279;DHT22;54193;53.746;10.058;2022-12-18T15:47:51;-3.94;86.75
67279;DHT22;54193;53.746;10.058;2022-12-18T15:50:36;-3.92;86.70
67279;DHT22;54193;53.746;10.058;2022-12-18T15:53:23;-3.93;86.93
67279;DHT22;54193;53.746;10.058;2022-12-18T15:56:10;-3.89;86.78
67279;DHT22;54193;53.746;10.058;2022-12-18T15:59:17;-3.90;86.68
67279;DHT22;54193;53.746;10.058;2022-12-18T16:02:14;-3.92;87.01
67279;DHT22;54193;53.746;10.058;2022-12-18T16:05:01;-3.92;86.98
67279;DHT22;54193;53.746;10.058;2022-12-18T16:07:47;-3.96;87.07
67279;DHT22;54193;53.746;10.058;2022-12-18T16:10:33;-3.97;87.37
67279;DHT22;54193;53.746;10.058;2022-12-18T16:13:19;-3.99;87.20
67279;DHT22;54193;53.746;10.058;2022-12-18T16:16:08;-3.96;87.08
67279;DHT22;54193;53.746;10.058;2022-12-18T16:18:53;-4.00;87.49
67279;DHT22;54193;53.746;10.058;2022-12-18T16:21:39;-4.06;87.71
67279;DHT22;54193;53.746;10.058;2022-12-18T16:24:27;-4.04;87.99
67279;DHT22;54193;53.746;10.058;2022-12-18T16:27:13;-4.10;87.88
67279;DHT22;54193;53.746;10.058;2022-12-18T16:29:59;-4.11;87.99
67279;DHT22;54193;53.746;10.058;2022-12-18T16:32:45;-4.15;88.46
67279;DHT22;54193;53.746;10.058;2022-12-18T16:35:31;-4.18;88.31
67279;DHT22;54193;53.746;10.058;2022-12-18T16:38:18;-4.21;88.45
67279;DHT22;54193;53.746;10.058;2022-12-18T16:41:17;-4.23;88.79
67279;DHT22;54193;53.746;10.058;2022-12-18T16:44:18;-4.27;88.62
67279;DHT22;54193;53.746;10.058;2022-12-18T16:47:05;-4.25;88.87
67279;DHT22;54193;53.746;10.058;2022-12-18T16:49:50;-4.30;89.00
67279;DHT22;54193;53.746;10.058;2022-12-18T16:52:38;-4.31;88.98
67279;DHT22;54193;53.746;10.058;2022-12-18T16:55:24;-4.31;88.91
67279;DHT22;54193;53.746;10.058;2022-12-18T16:58:10;-4.35;88.86
67279;DHT22;54193;53.746;10.058;2022-12-18T17:00:55;-4.32;89.12
67279;DHT22;54193;53.746;10.058;2022-12-18T17:03:41;-4.31;88.98
67279;DHT22;54193;53.746;10.058;2022-12-18T17:06:29;-4.31;89.09
67279;DHT22;54193;53.746;10.058;2022-12-18T17:09:16;-4.31;89.05
67279;DHT22;54193;53.746;10.058;2022-12-18T17:12:02;-4.31;89.17
67279;DHT22;54193;53.746;10.058;2022-12-18T17:14:48;-4.32;89.07
67279;DHT22;54193;53.746;10.058;2022-12-18T17:17:34;-4.30;89.14
67279;DHT22;54193;53.746;10.058;2022-12-18T17:20:21;-4.31;89.15
67279;DHT22;54193;53.746;10.058;2022-12-18T17:23:06;-4.27;88.96
67279;DHT22;54193;53.746;10.058;2022-12-18T17:25:58;-4.28;88.69
67279;DHT22;54193;53.746;10.058;2022-12-18T17:28:44;-4.27;88.80
67279;DHT22;54193;53.746;10.058;2022-12-18T17:31:30;-4.25;88.71
67279;DHT22;54193;53.746;10.058;2022-12-18T17:34:16;-4.24;88.69
67279;DHT22;54193;53.746;10.058;2022-12-18T17:37:02;-4.21;88.75
67279;DHT22;54193;53.746;10.058;2022-12-18T17:39:48;-4.17;88.57
67279;DHT22;54193;53.746;10.058;2022-12-18T17:42:33;-4.15;88.51
67279;DHT22;54193;53.746;10.058;2022-12-18T17:45:19;-4.15;88.52
67279;DHT22;54193;53.746;10.058;2022-12-18T17:48:06;-4.11;88.28
67279;DHT22;54193;53.746;10.058;2022-12-18T17:50:52;-4.13;88.31
67279;DHT22;54193;53.746;10.058;2022-12-18T17:53:38;-4.10;88.40
67279;DHT22;54193;53.746;10.058;2022-12-18T17:56:24;-4.09;88.21
67279;DHT22;54193;53.746;10.058;2022-12-18T17:59:10;-4.06;88.36
67279;DHT22;54193;53.746;10.058;2022-12-18T18:01:55;-3.97;88.04
67279;DHT22;54193;53.746;10.058;2022-12-18T18:04:41;-3.93;87.80
67279;DHT22;54193;53.746;10.058;2022-12-18T18:07:27;-3.87;87.64
67279;DHT22;54193;53.746;10.058;2022-12-18T18:10:12;-3.82;87.29
67279;DHT22;54193;53.746;10.058;2022-12-18T18:12:58;-3.78;86.78
67279;DHT22;54193;53.746;10.058;2022-12-18T18:16:02;-3.72;86.80
67279;DHT22;54193;53.746;10.058;2022-12-18T18:18:48;-3.74;86.79
67279;DHT22;54193;53.746;10.058;2022-12-18T18:21:37;-3.68;86.90
67279;DHT22;54193;53.746;10.058;2022-12-18T18:24:23;-3.64;86.55
67279;DHT22;54193;53.746;10.058;2022-12-18T18:27:10;-3.64;86.53
67279;DHT22;54193;53.746;10.058;2022-12-18T18:29:55;-3.61;86.08
67279;DHT22;54193;53.746;10.058;2022-12-18T18:32:41;-3.52;85.61
67279;DHT22;54193;53.746;10.058;2022-12-18T18:35:26;-3.50;85.81
67279;DHT22;54193;53.746;10.058;2022-12-18T18:38:12;-3.51;85.91
67279;DHT22;54193;53.746;10.058;2022-12-18T18:41:01;-3.51;86.07
67279;DHT22;54193;53.746;10.058;2022-12-18T18:43:47;-3.50;85.71
67279;DHT22;54193;53.746;10.058;2022-12-18T18:46:33;-3.50;85.94
67279;DHT22;54193;53.746;10.058;2022-12-18T18:49:19;-3.50;85.84
67279;DHT22;54193;53.746;10.058;2022-12-18T18:52:04;-3.48;85.80
67279;DHT22;54193;53.746;10.058;2022-12-18T18:54:51;-3.43;85.14
67279;DHT22;54193;53.746;10.058;2022-12-18T18:57:37;-3.41;85.16
67279;DHT22;54193;53.746;10.058;2022-12-18T19:00:22;-3.44;85.54
67279;DHT22;54193;53.746;10.058;2022-12-18T19:03:08;-3.43;85.35
67279;DHT22;54193;53.746;10.058;2022-12-18T19:05:55;-3.40;85.30
67279;DHT22;54193;53.746;10.058;2022-12-18T19:08:44;-3.37;85.00
67279;DHT22;54193;53.746;10.058;2022-12-18T19:11:31;-3.37;85.23
67279;DHT22;54193;53.746;10.058;2022-12-18T19:14:35;-3.36;85.25
67279;DHT22;54193;53.746;10.058;2022-12-18T19:17:21;-3.36;85.23
67279;DHT22;54193;53.746;10.058;2022-12-18T19:20:07;-3.34;85.27